sensor_id;sensor_type;location;lat;lon;timestamp;pressure;altitude;pressure_sealevel;temperature
51561;BMP280;37654;51.262;17.058;2022-12-18T00:01:29;101198.22;;;-5.72
51561;BMP280;37654;51.262;17.058;2022-12-18T00:03:59;101184.16;;;-5.67
51561;BMP280;37654;51.262;17.058;2022-12-18T00:06:26;101186.13;;;-5.63
51561;BMP280;37654;51.262;17.058;2022-12-18T00:08:53;101195.22;;;-5.79
51561;BMP280;37654;51.262;17.058;2022-12-18T00:11:21;101191.59;;;-5.83
51561;BMP280;37654;51.262;17.058;2022-12-18T00:13:47;101199.97;;;-5.84
51561;BMP280;37654;51.262;17.058;2022-12-18T00:16:15;101196.66;;;-5.83
51561;BMP280;37654;51.262;17.058;2022-12-18T00:18:41;101206.97;;;-5.80
51561;BMP280;37654;51.262;17.058;2022-12-18T00:21:09;101204.53;;;-5.78
51561;BMP280;37654;51.262;17.058;2022-12-18T00:23:36;101203.72;;;-5.65
51561;BMP280;37654;51.262;17.058;2022-12-18T00:26:03;101210.69;;;-5.61
51561;BMP280;37654;51.262;17.058;2022-12-18T00:28:29;101215.28;;;-5.55
51561;BMP280;37654;51.262;17.058;2022-12-18T00:31:01;101227.44;;;-5.63
51561;BMP280;37654;51.262;17.058;2022-12-18T00:33:27;101224.50;;;-5.56
51561;BMP280;37654;51.262;17.058;2022-12-18T00:35:52;101224.78;;;-5.51
51561;BMP280;37654;51.262;17.058;2022-12-18T00:38:18;101215.63;;;-5.49
51561;BMP280;37654;51.262;17.058;2022-12-18T00:40:43;101223.81;;;-5.53
51561;BMP280;37654;51.262;17.058;2022-12-18T00:43:09;101237.03;;;-5.57
51561;BMP280;37654;51.262;17.058;2022-12-18T00:45:34;101235.28;;;-5.58
51561;BMP280;37654;51.262;17.058;2022-12-18T00:47:59;101233.31;;;-5.49
51561;BMP280;37654;51.262;17.058;2022-12-18T00:50:25;101231.03;;;-5.59
51561;BMP280;37654;51.262;17.058;2022-12-18T00:52:51;101231.91;;;-5.72
51561;BMP280;37654;51.262;17.058;2022-12-18T00:55:17;101235.50;;;-5.81
51561;BMP280;37654;51.262;17.058;2022-12-18T00:57:43;101242.03;;;-5.72
51561;BMP280;37654;51.262;17.058;2022-12-18T01:00:11;101245.22;;;-5.74
51561;BMP280;37654;51.262;17.058;2022-12-18T01:02:37;101251.41;;;-5.69
51561;BMP280;37654;51.262;17.058;2022-12-18T01:05:03;101251.41;;;-5.56
51561;BMP280;37654;51.262;17.058;2022-12-18T01:07:28;101263.06;;;-5.58
51561;BMP280;37654;51.262;17.058;2022-12-18T01:09:54;101256.44;;;-5.56
51561;BMP280;37654;51.262;17.058;2022-12-18T01:12:19;101258.31;;;-5.54
51561;BMP280;37654;51.262;17.058;2022-12-18T01:14:45;101261.31;;;-5.46
51561;BMP280;37654;51.262;17.058;2022-12-18T01:17:10;101262.84;;;-5.36
51561;BMP280;37654;51.262;17.058;2022-12-18T01:19:35;101264.44;;;-5.50
51561;BMP280;37654;51.262;17.058;2022-12-18T01:22:01;101266.16;;;-5.49
51561;BMP280;37654;51.262;17.058;2022-12-18T01:24:26;101279.88;;;-5.46
51561;BMP280;37654;51.262;17.058;2022-12-18T01:26:52;101285.03;;;-5.45
51561;BMP280;37654;51.262;17.058;2022-12-18T01:29:17;101285.25;;;-5.42
51561;BMP280;37654;51.262;17.058;2022-12-18T01:31:43;101282.88;;;-5.26
51561;BMP280;37654;51.262;17.058;2022-12-18T01:34:08;101279.69;;;-5.23
51561;BMP280;37654;51.262;17.058;2022-12-18T01:36:37;101293.28;;;-5.21
51561;BMP280;37654;51.262;17.058;2022-12-18T01:39:07;101292.69;;;-5.18
51561;BMP280;37654;51.262;17.058;2022-12-18T01:41:33;101293.38;;;-5.20
51561;BMP280;37654;51.262;17.058;2022-12-18T01:47:07;101290.75;;;-5.21
51561;BMP280;37654;51.262;17.058;2022-12-18T01:49:33;101296.50;;;-5.24
51561;BMP280;37654;51.262;17.058;2022-12-18T01:51:58;101298.06;;;-5.26
51561;BMP280;37654;51.262;17.058;2022-12-18T01:54:23;101298.59;;;-5.17
51561;BMP280;37654;51.262;17.058;2022-12-18T01:56:49;101305.03;;;-5.09
51561;BMP280;37654;51.262;17.058;2022-12-18T01:59:14;101305.25;;;-5.06
51561;BMP280;37654;51.262;17.058;2022-12-18T02:01:40;101298.41;;;-4.94
51561;BMP280;37654;51.262;17.058;2022-12-18T02:04:21;101295.28;;;-5.03
51561;BMP280;37654;51.262;17.058;2022-12-18T02:06:51;101296.94;;;-5.04
51561;BMP280;37654;51.262;17.058;2022-12-18T02:09:22;101308.84;;;-5.03
51561;BMP280;37654;51.262;17.058;2022-12-18T02:17:11;101305.72;;;-4.99
51561;BMP280;37654;51.262;17.058;2022-12-18T02:22:23;101304.81;;;-4.99
51561;BMP280;37654;51.262;17.058;2022-12-18T02:27:18;101308.84;;;-5.03
51561;BMP280;37654;51.262;17.058;2022-12-18T02:29:50;101312.31;;;-5.01
51561;BMP280;37654;51.262;17.058;2022-12-18T02:32:22;101323.28;;;-4.88
51561;BMP280;37654;51.262;17.058;2022-12-18T02:34:50;101323.50;;;-4.85
51561;BMP280;37654;51.262;17.058;2022-12-18T02:37:17;101324.03;;;-4.76
51561;BMP280;37654;51.262;17.058;2022-12-18T02:39:44;101322.69;;;-4.71
51561;BMP280;37654;51.262;17.058;2022-12-18T02:42:12;101318.56;;;-4.69
51561;BMP280;37654;51.262;17.058;2022-12-18T02:44:45;101312.47;;;-4.85
51561;BMP280;37654;51.262;17.058;2022-12-18T02:47:16;101307.91;;;-4.78
51561;BMP280;37654;51.262;17.058;2022-12-18T02:57:58;101313.53;;;-4.82
51561;BMP280;37654;51.262;17.058;2022-12-18T03:00:34;101330.38;;;-4.82
51561;BMP280;37654;51.262;17.058;2022-12-18T03:03:07;101318.44;;;-4.85
51561;BMP280;37654;51.262;17.058;2022-12-18T03:08:24;101329.16;;;-4.62
51561;BMP280;37654;51.262;17.058;2022-12-18T03:11:06;101329.69;;;-4.67
51561;BMP280;37654;51.262;17.058;2022-12-18T03:13:35;101333.00;;;-4.81
51561;BMP280;37654;51.262;17.058;2022-12-18T03:16:05;101329.88;;;-4.77
51561;BMP280;37654;51.262;17.058;2022-12-18T03:21:05;101331.13;;;-4.70
51561;BMP280;37654;51.262;17.058;2022-12-18T03:23:36;101344.25;;;-4.63
51561;BMP280;37654;51.262;17.058;2022-12-18T03:26:07;101345.41;;;-4.58
51561;BMP280;37654;51.262;17.058;2022-12-18T03:28:38;101348.13;;;-4.55
51561;BMP280;37654;51.262;17.058;2022-12-18T03:31:07;101349.50;;;-4.60
51561;BMP280;37654;51.262;17.058;2022-12-18T03:33:51;101353.25;;;-4.54
51561;BMP280;37654;51.262;17.058;2022-12-18T03:36:17;101353.56;;;-4.49
51561;BMP280;37654;51.262;17.058;2022-12-18T03:38:43;101349.00;;;-4.55
51561;BMP280;37654;51.262;17.058;2022-12-18T03:46:09;101343.91;;;-4.94
51561;BMP280;37654;51.262;17.058;2022-12-18T03:48:48;101350.59;;;-4.82
51561;BMP280;37654;51.262;17.058;2022-12-18T03:51:27;101343.88;;;-4.69
51561;BMP280;37654;51.262;17.058;2022-12-18T03:53:58;101350.78;;;-4.79
51561;BMP280;37654;51.262;17.058;2022-12-18T03:56:28;101352.25;;;-4.83
51561;BMP280;37654;51.262;17.058;2022-12-18T03:58:56;101353.72;;;-4.73
51561;BMP280;37654;51.262;17.058;2022-12-18T04:01:27;101355.56;;;-4.71
51561;BMP280;37654;51.262;17.058;2022-12-18T04:03:53;101364.78;;;-4.71
51561;BMP280;37654;51.262;17.058;2022-12-18T04:06:20;101366.03;;;-4.65
51561;BMP280;37654;51.262;17.058;2022-12-18T04:08:46;101365.09;;;-4.67
51561;BMP280;37654;51.262;17.058;2022-12-18T04:11:12;101374.31;;;-4.67
51561;BMP280;37654;51.262;17.058;2022-12-18T04:13:38;101374.69;;;-4.62
51561;BMP280;37654;51.262;17.058;2022-12-18T04:16:04;101376.16;;;-4.65
51561;BMP280;37654;51.262;17.058;2022-12-18T04:18:30;101374.97;;;-4.57
51561;BMP280;37654;51.262;17.058;2022-12-18T04:20:55;101376.16;;;-4.52
51561;BMP280;37654;51.262;17.058;2022-12-18T04:23:20;101379.47;;;-4.53
51561;BMP280;37654;51.262;17.058;2022-12-18T04:25:47;101379.34;;;-4.55
51561;BMP280;37654;51.262;17.058;2022-12-18T04:28:12;101384.75;;;-4.63
51561;BMP280;37654;51.262;17.058;2022-12-18T04:30:38;101384.34;;;-4.56
51561;BMP280;37654;51.262;17.058;2022-12-18T04:33:03;101384.41;;;-4.55
51561;BMP280;37654;51.262;17.058;2022-12-18T04:35:28;101399.41;;;-4.58
51561;BMP280;37654;51.262;17.058;2022-12-18T04:37:54;101408.56;;;-4.60
51561;BMP280;37654;51.262;17.058;2022-12-18T04:40:19;101402.53;;;-4.62
51561;BMP280;37654;51.262;17.058;2022-12-18T04:42:45;101409.66;;;-4.56
51561;BMP280;37654;51.262;17.058;2022-12-18T04:45:10;101407.09;;;-4.56
51561;BMP280;37654;51.262;17.058;2022-12-18T04:47:36;101418.31;;;-4.78
51561;BMP280;37654;51.262;17.058;2022-12-18T04:50:01;101419.09;;;-4.79
51561;BMP280;37654;51.262;17.058;2022-12-18T04:52:26;101418.31;;;-4.91
51561;BMP280;37654;51.262;17.058;2022-12-18T04:54:52;101427.94;;;-4.86
51561;BMP280;37654;51.262;17.058;2022-12-18T04:57:17;101424.84;;;-4.94
51561;BMP280;37654;51.262;17.058;2022-12-18T04:59:44;101434.47;;;-4.89
51561;BMP280;37654;51.262;17.058;2022-12-18T05:02:09;101418.81;;;-4.84
51561;BMP280;37654;51.262;17.058;2022-12-18T05:04:35;101424.25;;;-4.78
51561;BMP280;37654;51.262;17.058;2022-12-18T05:07:00;101414.53;;;-4.97
51561;BMP280;37654;51.262;17.058;2022-12-18T05:09:25;101419.38;;;-5.00
51561;BMP280;37654;51.262;17.058;2022-12-18T05:11:51;101436.88;;;-5.03
51561;BMP280;37654;51.262;17.058;2022-12-18T05:14:16;101434.34;;;-5.03
51561;BMP280;37654;51.262;17.058;2022-12-18T05:16:42;101426.97;;;-5.00
51561;BMP280;37654;51.262;17.058;2022-12-18T05:19:07;101415.50;;;-4.83
51561;BMP280;37654;51.262;17.058;2022-12-18T05:21:32;101430.66;;;-4.83
51561;BMP280;37654;51.262;17.058;2022-12-18T05:23:58;101435.84;;;-4.94
51561;BMP280;37654;51.262;17.058;2022-12-18T05:26:23;101434.66;;;-4.86
51561;BMP280;37654;51.262;17.058;2022-12-18T05:28:49;101435.44;;;-4.74
51561;BMP280;37654;51.262;17.058;2022-12-18T05:31:14;101440.78;;;-4.70
51561;BMP280;37654;51.262;17.058;2022-12-18T05:33:40;101434.06;;;-4.69
51561;BMP280;37654;51.262;17.058;2022-12-18T05:36:07;101438.47;;;-4.67
51561;BMP280;37654;51.262;17.058;2022-12-18T05:38:34;101439.03;;;-4.84
51561;BMP280;37654;51.262;17.058;2022-12-18T05:41:00;101438.84;;;-4.74
51561;BMP280;37654;51.262;17.058;2022-12-18T05:43:26;101441.97;;;-4.78
51561;BMP280;37654;51.262;17.058;2022-12-18T05:45:53;101452.09;;;-4.78
51561;BMP280;37654;51.262;17.058;2022-12-18T05:48:18;101464.34;;;-4.84
51561;BMP280;37654;51.262;17.058;2022-12-18T05:50:46;101465.13;;;-4.85
51561;BMP280;37654;51.262;17.058;2022-12-18T05:53:12;101470.94;;;-4.86
51561;BMP280;37654;51.262;17.058;2022-12-18T05:55:40;101474.84;;;-4.78
51561;BMP280;37654;51.262;17.058;2022-12-18T05:58:07;101470.94;;;-4.73
51561;BMP280;37654;51.262;17.058;2022-12-18T06:00:34;101476.50;;;-4.65
51561;BMP280;37654;51.262;17.058;2022-12-18T06:03:01;101487.78;;;-4.73
51561;BMP280;37654;51.262;17.058;2022-12-18T06:05:26;101488.44;;;-5.01
51561;BMP280;37654;51.262;17.058;2022-12-18T06:07:51;101489.09;;;-5.04
51561;BMP280;37654;51.262;17.058;2022-12-18T06:10:17;101494.53;;;-5.11
51561;BMP280;37654;51.262;17.058;2022-12-18T06:12:42;101501.03;;;-5.14
51561;BMP280;37654;51.262;17.058;2022-12-18T06:15:08;101489.22;;;-5.02
51561;BMP280;37654;51.262;17.058;2022-12-18T06:17:34;101507.03;;;-4.88
51561;BMP280;37654;51.262;17.058;2022-12-18T06:20:00;101517.75;;;-4.79
51561;BMP280;37654;51.262;17.058;2022-12-18T06:22:26;101509.47;;;-5.02
51561;BMP280;37654;51.262;17.058;2022-12-18T06:24:52;101515.88;;;-4.94
51561;BMP280;37654;51.262;17.058;2022-12-18T06:27:18;101519.78;;;-4.87
51561;BMP280;37654;51.262;17.058;2022-12-18T06:29:43;101523.66;;;-4.79
51561;BMP280;37654;51.262;17.058;2022-12-18T06:32:08;101516.09;;;-4.91
51561;BMP280;37654;51.262;17.058;2022-12-18T06:34:34;101518.28;;;-4.96
51561;BMP280;37654;51.262;17.058;2022-12-18T06:37:02;101524.81;;;-4.99
51561;BMP280;37654;51.262;17.058;2022-12-18T06:39:27;101527.94;;;-4.91
51561;BMP280;37654;51.262;17.058;2022-12-18T06:41:52;101534.94;;;-4.87
51561;BMP280;37654;51.262;17.058;2022-12-18T06:44:18;101527.91;;;-5.03
51561;BMP280;37654;51.262;17.058;2022-12-18T06:46:44;101539.00;;;-5.01
51561;BMP280;37654;51.262;17.058;2022-12-18T06:49:09;101540.97;;;-4.97
51561;BMP280;37654;51.262;17.058;2022-12-18T06:51:35;101541.06;;;-4.96
51561;BMP280;37654;51.262;17.058;2022-12-18T06:54:01;101545.06;;;-4.87
51561;BMP280;37654;51.262;17.058;2022-12-18T06:56:26;101554.22;;;-4.89
51561;BMP280;37654;51.262;17.058;2022-12-18T06:58:52;101557.50;;;-4.90
51561;BMP280;37654;51.262;17.058;2022-12-18T07:01:17;101545.34;;;-4.82
51561;BMP280;37654;51.262;17.058;2022-12-18T07:03:43;101540.03;;;-4.74
51561;BMP280;37654;51.262;17.058;2022-12-18T07:06:17;101537.03;;;-4.81
51561;BMP280;37654;51.262;17.058;2022-12-18T07:08:43;101546.81;;;-4.86
51561;BMP280;37654;51.262;17.058;2022-12-18T07:11:09;101555.09;;;-4.75
51561;BMP280;37654;51.262;17.058;2022-12-18T07:13:35;101558.50;;;-4.75
51561;BMP280;37654;51.262;17.058;2022-12-18T07:16:27;101555.81;;;-4.78
51561;BMP280;37654;51.262;17.058;2022-12-18T07:18:55;101558.34;;;-4.78
51561;BMP280;37654;51.262;17.058;2022-12-18T07:21:22;101561.13;;;-4.86
51561;BMP280;37654;51.262;17.058;2022-12-18T07:23:49;101568.00;;;-4.96
51561;BMP280;37654;51.262;17.058;2022-12-18T07:26:16;101570.50;;;-5.09
51561;BMP280;37654;51.262;17.058;2022-12-18T07:28:42;101566.03;;;-5.00
51561;BMP280;37654;51.262;17.058;2022-12-18T07:31:10;101571.09;;;-5.00
51561;BMP280;37654;51.262;17.058;2022-12-18T07:33:36;101571.09;;;-5.00
51561;BMP280;37654;51.262;17.058;2022-12-18T07:36:03;101579.38;;;-5.03
51561;BMP280;37654;51.262;17.058;2022-12-18T07:38:30;101587.50;;;-5.07
51561;BMP280;37654;51.262;17.058;2022-12-18T07:41:09;101589.09;;;-5.09
51561;BMP280;37654;51.262;17.058;2022-12-18T07:43:35;101591.81;;;-5.06
51561;BMP280;37654;51.262;17.058;2022-12-18T07:46:02;101586.06;;;-5.03
51561;BMP280;37654;51.262;17.058;2022-12-18T07:48:28;101575.00;;;-4.92
51561;BMP280;37654;51.262;17.058;2022-12-18T07:50:58;101585.31;;;-5.02
51561;BMP280;37654;51.262;17.058;2022-12-18T07:53:24;101590.53;;;-4.99
51561;BMP280;37654;51.262;17.058;2022-12-18T07:55:55;101596.59;;;-4.97
51561;BMP280;37654;51.262;17.058;2022-12-18T07:58:20;101598.84;;;-5.02
51561;BMP280;37654;51.262;17.058;2022-12-18T08:00:45;101597.53;;;-5.08
51561;BMP280;37654;51.262;17.058;2022-12-18T08:03:12;101608.59;;;-5.19
51561;BMP280;37654;51.262;17.058;2022-12-18T08:05:37;101614.09;;;-5.24
51561;BMP280;37654;51.262;17.058;2022-12-18T08:08:02;101619.19;;;-5.36
51561;BMP280;37654;51.262;17.058;2022-12-18T08:10:28;101618.31;;;-5.36
51561;BMP280;37654;51.262;17.058;2022-12-18T08:12:53;101624.28;;;-5.47
51561;BMP280;37654;51.262;17.058;2022-12-18T08:15:18;101628.00;;;-5.42
51561;BMP280;37654;51.262;17.058;2022-12-18T08:17:44;101627.22;;;-5.30
51561;BMP280;37654;51.262;17.058;2022-12-18T08:20:10;101627.22;;;-5.30
51561;BMP280;37654;51.262;17.058;2022-12-18T08:22:35;101629.72;;;-5.30
51561;BMP280;37654;51.262;17.058;2022-12-18T08:25:03;101629.34;;;-5.47
51561;BMP280;37654;51.262;17.058;2022-12-18T08:27:28;101632.31;;;-5.41
51561;BMP280;37654;51.262;17.058;2022-12-18T08:29:54;101644.34;;;-5.26
51561;BMP280;37654;51.262;17.058;2022-12-18T08:32:20;101641.38;;;-5.32
51561;BMP280;37654;51.262;17.058;2022-12-18T08:34:45;101644.78;;;-5.31
51561;BMP280;37654;51.262;17.058;2022-12-18T08:37:11;101649.09;;;-5.30
51561;BMP280;37654;51.262;17.058;2022-12-18T08:39:36;101653.78;;;-5.23
51561;BMP280;37654;51.262;17.058;2022-12-18T08:42:02;101657.22;;;-5.10
51561;BMP280;37654;51.262;17.058;2022-12-18T08:44:41;101659.09;;;-5.08
51561;BMP280;37654;51.262;17.058;2022-12-18T08:47:07;101669.16;;;-5.20
51561;BMP280;37654;51.262;17.058;2022-12-18T08:49:33;101669.16;;;-5.20
51561;BMP280;37654;51.262;17.058;2022-12-18T08:51:59;101664.63;;;-5.13
51561;BMP280;37654;51.262;17.058;2022-12-18T08:54:25;101663.38;;;-5.07
51561;BMP280;37654;51.262;17.058;2022-12-18T08:56:51;101665.38;;;-5.14
51561;BMP280;37654;51.262;17.058;2022-12-18T08:59:18;101669.63;;;-5.02
51561;BMP280;37654;51.262;17.058;2022-12-18T09:01:43;101661.69;;;-4.95
51561;BMP280;37654;51.262;17.058;2022-12-18T09:04:09;101664.72;;;-4.88
51561;BMP280;37654;51.262;17.058;2022-12-18T09:06:35;101665.88;;;-4.95
51561;BMP280;37654;51.262;17.058;2022-12-18T09:09:00;101659.03;;;-4.96
51561;BMP280;37654;51.262;17.058;2022-12-18T09:11:27;101644.88;;;-4.82
51561;BMP280;37654;51.262;17.058;2022-12-18T09:13:54;101641.31;;;-4.72
51561;BMP280;37654;51.262;17.058;2022-12-18T09:16:21;101644.34;;;-4.78
51561;BMP280;37654;51.262;17.058;2022-12-18T09:18:47;101645.22;;;-4.77
51561;BMP280;37654;51.262;17.058;2022-12-18T09:21:18;101632.81;;;-4.86
51561;BMP280;37654;51.262;17.058;2022-12-18T09:23:44;101639.06;;;-5.05
51561;BMP280;37654;51.262;17.058;2022-12-18T09:26:14;101635.38;;;-5.10
51561;BMP280;37654;51.262;17.058;2022-12-18T09:28:39;101629.81;;;-5.28
51561;BMP280;37654;51.262;17.058;2022-12-18T09:31:08;101618.84;;;-5.05
51561;BMP280;37654;51.262;17.058;2022-12-18T09:33:36;101614.34;;;-4.85
51561;BMP280;37654;51.262;17.058;2022-12-18T09:36:05;101617.63;;;-4.86
51561;BMP280;37654;51.262;17.058;2022-12-18T09:38:31;101610.53;;;-4.91
51561;BMP280;37654;51.262;17.058;2022-12-18T09:41:04;101611.25;;;-4.81
51561;BMP280;37654;51.262;17.058;2022-12-18T09:43:36;101603.50;;;-4.71
51561;BMP280;37654;51.262;17.058;2022-12-18T09:46:08;101606.63;;;-4.99
51561;BMP280;37654;51.262;17.058;2022-12-18T09:48:38;101599.91;;;-4.98
51561;BMP280;37654;51.262;17.058;2022-12-18T09:51:15;101602.81;;;-5.05
51561;BMP280;37654;51.262;17.058;2022-12-18T09:53:44;101604.59;;;-4.91
51561;BMP280;37654;51.262;17.058;2022-12-18T09:56:19;101604.44;;;-4.69
51561;BMP280;37654;51.262;17.058;2022-12-18T09:58:49;101609.56;;;-4.56
51561;BMP280;37654;51.262;17.058;2022-12-18T10:01:21;101612.25;;;-4.66
51561;BMP280;37654;51.262;17.058;2022-12-18T10:03:48;101609.88;;;-4.76
51561;BMP280;37654;51.262;17.058;2022-12-18T10:06:18;101605.19;;;-4.83
51561;BMP280;37654;51.262;17.058;2022-12-18T10:16:59;101614.38;;;-4.96
51561;BMP280;37654;51.262;17.058;2022-12-18T10:27:41;101616.31;;;-4.81
51561;BMP280;37654;51.262;17.058;2022-12-18T10:30:20;101616.06;;;-4.60
51561;BMP280;37654;51.262;17.058;2022-12-18T10:32:46;101617.44;;;-4.52
51561;BMP280;37654;51.262;17.058;2022-12-18T10:35:18;101614.47;;;-5.07
51561;BMP280;37654;51.262;17.058;2022-12-18T10:38:00;101618.56;;;-4.96
51561;BMP280;37654;51.262;17.058;2022-12-18T10:40:26;101624.25;;;-4.88
51561;BMP280;37654;51.262;17.058;2022-12-18T10:43:15;101610.50;;;-4.67
51561;BMP280;37654;51.262;17.058;2022-12-18T10:45:42;101613.53;;;-4.60
51561;BMP280;37654;51.262;17.058;2022-12-18T10:48:21;101609.44;;;-4.70
51561;BMP280;37654;51.262;17.058;2022-12-18T10:50:49;101615.06;;;-4.62
51561;BMP280;37654;51.262;17.058;2022-12-18T10:53:22;101614.56;;;-4.69
51561;BMP280;37654;51.262;17.058;2022-12-18T10:55:49;101612.75;;;-4.59
51561;BMP280;37654;51.262;17.058;2022-12-18T10:58:32;101626.09;;;-4.36
51561;BMP280;37654;51.262;17.058;2022-12-18T11:01:09;101631.84;;;-4.38
51561;BMP280;37654;51.262;17.058;2022-12-18T11:06:04;101626.38;;;-4.44
51561;BMP280;37654;51.262;17.058;2022-12-18T11:08:30;101628.81;;;-4.33
51561;BMP280;37654;51.262;17.058;2022-12-18T11:10:56;101629.91;;;-4.42
51561;BMP280;37654;51.262;17.058;2022-12-18T11:13:23;101629.22;;;-4.39
51561;BMP280;37654;51.262;17.058;2022-12-18T11:15:50;101636.31;;;-4.47
51561;BMP280;37654;51.262;17.058;2022-12-18T11:18:26;101650.91;;;-4.56
51561;BMP280;37654;51.262;17.058;2022-12-18T11:20:59;101650.34;;;-4.76
51561;BMP280;37654;51.262;17.058;2022-12-18T11:23:26;101652.09;;;-4.75
51561;BMP280;37654;51.262;17.058;2022-12-18T11:25:59;101647.47;;;-4.69
51561;BMP280;37654;51.262;17.058;2022-12-18T11:28:49;101643.41;;;-4.67
51561;BMP280;37654;51.262;17.058;2022-12-18T11:31:25;101639.28;;;-4.65
51561;BMP280;37654;51.262;17.058;2022-12-18T11:34:17;101644.78;;;-4.83
51561;BMP280;37654;51.262;17.058;2022-12-18T11:36:46;101641.81;;;-4.78
51561;BMP280;37654;51.262;17.058;2022-12-18T11:42:13;101620.50;;;-4.68
51561;BMP280;37654;51.262;17.058;2022-12-18T11:44:49;101612.16;;;-4.55
51561;BMP280;37654;51.262;17.058;2022-12-18T11:50:01;101621.38;;;-4.68
51561;BMP280;37654;51.262;17.058;2022-12-18T11:52:36;101619.16;;;-4.63
51561;BMP280;37654;51.262;17.058;2022-12-18T11:55:13;101616.69;;;-4.75
51561;BMP280;37654;51.262;17.058;2022-12-18T12:00:16;101619.78;;;-4.79
51561;BMP280;37654;51.262;17.058;2022-12-18T12:10:55;101619.00;;;-4.91
51561;BMP280;37654;51.262;17.058;2022-12-18T12:16:37;101615.06;;;-4.62
51561;BMP280;37654;51.262;17.058;2022-12-18T12:19:13;101611.66;;;-4.62
51561;BMP280;37654;51.262;17.058;2022-12-18T12:21:55;101606.44;;;-4.52
51561;BMP280;37654;51.262;17.058;2022-12-18T12:34:34;101617.31;;;-4.66
51561;BMP280;37654;51.262;17.058;2022-12-18T12:37:16;101621.03;;;-4.48
51561;BMP280;37654;51.262;17.058;2022-12-18T12:39:46;101612.47;;;-4.37
51561;BMP280;37654;51.262;17.058;2022-12-18T12:42:18;101613.91;;;-4.54
51561;BMP280;37654;51.262;17.058;2022-12-18T12:44:58;101611.09;;;-4.71
51561;BMP280;37654;51.262;17.058;2022-12-18T12:47:30;101617.09;;;-4.69
51561;BMP280;37654;51.262;17.058;2022-12-18T12:49:59;101616.44;;;-4.66
51561;BMP280;37654;51.262;17.058;2022-12-18T12:52:47;101602.72;;;-4.57
51561;BMP280;37654;51.262;17.058;2022-12-18T12:55:17;101607.94;;;-4.80
51561;BMP280;37654;51.262;17.058;2022-12-18T13:00:41;101615.22;;;-4.84
51561;BMP280;37654;51.262;17.058;2022-12-18T13:03:24;101607.13;;;-4.91
51561;BMP280;37654;51.262;17.058;2022-12-18T13:05:58;101608.31;;;-4.87
51561;BMP280;37654;51.262;17.058;2022-12-18T13:08:27;101606.13;;;-4.93
51561;BMP280;37654;51.262;17.058;2022-12-18T13:10:57;101611.47;;;-4.78
51561;BMP280;37654;51.262;17.058;2022-12-18T13:13:54;101606.31;;;-4.66
51561;BMP280;37654;51.262;17.058;2022-12-18T13:16:22;101609.06;;;-4.63
51561;BMP280;37654;51.262;17.058;2022-12-18T13:18:50;101601.25;;;-4.66
51561;BMP280;37654;51.262;17.058;2022-12-18T13:21:23;101598.81;;;-4.65
51561;BMP280;37654;51.262;17.058;2022-12-18T13:23:49;101595.56;;;-4.75
51561;BMP280;37654;51.262;17.058;2022-12-18T13:36:41;101611.47;;;-4.78
51561;BMP280;37654;51.262;17.058;2022-12-18T13:39:21;101610.91;;;-4.85
51561;BMP280;37654;51.262;17.058;2022-12-18T13:41:49;101623.91;;;-4.81
51561;BMP280;37654;51.262;17.058;2022-12-18T13:46:55;101635.75;;;-4.80
51561;BMP280;37654;51.262;17.058;2022-12-18T13:49:28;101624.47;;;-4.85
51561;BMP280;37654;51.262;17.058;2022-12-18T13:51:58;101629.38;;;-4.99
51561;BMP280;37654;51.262;17.058;2022-12-18T13:54:40;101635.81;;;-5.15
51561;BMP280;37654;51.262;17.058;2022-12-18T13:59:50;101639.13;;;-5.16
51561;BMP280;37654;51.262;17.058;2022-12-18T14:02:21;101641.16;;;-5.23
51561;BMP280;37654;51.262;17.058;2022-12-18T14:04:48;101636.75;;;-5.26
51561;BMP280;37654;51.262;17.058;2022-12-18T14:07:32;101634.66;;;-5.31
51561;BMP280;37654;51.262;17.058;2022-12-18T14:10:00;101637.00;;;-5.34
51561;BMP280;37654;51.262;17.058;2022-12-18T14:12:33;101646.44;;;-5.32
51561;BMP280;37654;51.262;17.058;2022-12-18T14:15:33;101653.69;;;-5.36
51561;BMP280;37654;51.262;17.058;2022-12-18T14:21:03;101659.94;;;-5.31
51561;BMP280;37654;51.262;17.058;2022-12-18T14:23:40;101652.19;;;-5.34
51561;BMP280;37654;51.262;17.058;2022-12-18T14:26:25;101652.91;;;-5.35
51561;BMP280;37654;51.262;17.058;2022-12-18T14:29:10;101653.63;;;-5.38
51561;BMP280;37654;51.262;17.058;2022-12-18T14:31:46;101655.63;;;-5.45
51561;BMP280;37654;51.262;17.058;2022-12-18T14:34:16;101673.75;;;-5.50
51561;BMP280;37654;51.262;17.058;2022-12-18T14:36:52;101674.75;;;-5.48
51561;BMP280;37654;51.262;17.058;2022-12-18T14:39:18;101678.34;;;-5.45
51561;BMP280;37654;51.262;17.058;2022-12-18T14:41:43;101667.56;;;-5.43
51561;BMP280;37654;51.262;17.058;2022-12-18T14:44:12;101672.53;;;-5.44
51561;BMP280;37654;51.262;17.058;2022-12-18T14:46:39;101672.84;;;-5.40
51561;BMP280;37654;51.262;17.058;2022-12-18T14:49:29;101670.00;;;-5.44
51561;BMP280;37654;51.262;17.058;2022-12-18T14:51:57;101663.84;;;-5.47
51561;BMP280;37654;51.262;17.058;2022-12-18T14:54:25;101662.09;;;-5.48
51561;BMP280;37654;51.262;17.058;2022-12-18T14:57:21;101674.09;;;-5.57
51561;BMP280;37654;51.262;17.058;2022-12-18T14:59:47;101674.56;;;-5.63
51561;BMP280;37654;51.262;17.058;2022-12-18T15:02:28;101676.72;;;-5.67
51561;BMP280;37654;51.262;17.058;2022-12-18T15:05:05;101679.97;;;-5.70
51561;BMP280;37654;51.262;17.058;2022-12-18T15:07:47;101686.09;;;-5.77
51561;BMP280;37654;51.262;17.058;2022-12-18T15:10:20;101683.25;;;-5.71
51561;BMP280;37654;51.262;17.058;2022-12-18T15:12:49;101674.16;;;-5.80
51561;BMP280;37654;51.262;17.058;2022-12-18T15:20:57;101670.22;;;-5.88
51561;BMP280;37654;51.262;17.058;2022-12-18T15:26:01;101668.56;;;-5.87
51561;BMP280;37654;51.262;17.058;2022-12-18T15:34:00;101675.06;;;-5.91
51561;BMP280;37654;51.262;17.058;2022-12-18T15:36:28;101674.69;;;-5.95
51561;BMP280;37654;51.262;17.058;2022-12-18T15:39:03;101679.75;;;-5.95
51561;BMP280;37654;51.262;17.058;2022-12-18T15:41:34;101687.44;;;-5.94
51561;BMP280;37654;51.262;17.058;2022-12-18T15:44:00;101671.53;;;-6.04
51561;BMP280;37654;51.262;17.058;2022-12-18T15:46:28;101657.81;;;-6.07
51561;BMP280;37654;51.262;17.058;2022-12-18T15:48:55;101643.75;;;-6.04
51561;BMP280;37654;51.262;17.058;2022-12-18T15:51:51;101641.16;;;-6.05